Time;durP1;ratioP1;P1;durP2;ratioP2;P2;SDS_P1;SDS_P2;PMS_P1;PMS_P2;Temp;Humidity;BMP_temperature;BMP_pressure;BME280_temperature;BME280_humidity;BME280_pressure;Samples;Min_cycle;Max_cycle;Signal;HPM_P1;HPM_P2
2022/06/16 00:00:38;;;;;;;;;;;;;;;22.35;40.93;100721.50;4994726;28;6804;-78
2022/06/16 00:03:07;;;;;;;;;;;;;;;22.33;40.72;100724.13;4991297;28;7173;-78
2022/06/16 00:05:36;;;;;;;;;;;;;;;22.29;41.41;100719.75;4975106;28;7066;-77
2022/06/16 00:08:04;;;;;;;;;;;;;;;22.25;41.68;100714.50;4995148;28;7625;-77
2022/06/16 00:10:30;;;;;;;;;;;;;;;22.21;41.99;100721.44;4989131;28;7079;-77
2022/06/16 00:12:56;;;;;;;;;;;;;;;22.17;41.63;100711.88;4991555;28;7181;-77
2022/06/16 00:15:27;;;;;;;;;;;;;;;22.15;41.56;100721.44;5012785;28;6800;-77
2022/06/16 00:17:54;;;;;;;;;;;;;;;22.10;41.90;100715.31;4994861;28;7081;-77
2022/06/16 00:20:21;;;;;;;;;;;;;;;22.09;41.63;100724.00;4988894;28;6881;-77
2022/06/16 00:22:47;;;;;;;;;;;;;;;22.06;41.74;100719.63;4990860;28;7405;-77
2022/06/16 00:25:13;;;;;;;;;;;;;;;22.04;41.88;100714.44;4996658;28;7000;-77
2022/06/16 00:27:40;;;;;;;;;;;;;;;22.03;41.84;100712.69;4994085;28;7429;-77
2022/06/16 00:30:10;;;;;;;;;;;;;;;22.01;42.01;100714.38;4988904;28;8055;-77
2022/06/16 00:32:41;;;;;;;;;;;;;;;21.99;42.13;100710.91;4986487;28;6820;-77
2022/06/16 00:35:08;;;;;;;;;;;;;;;21.99;42.22;100712.66;4991626;28;7427;-77
2022/06/16 00:37:33;;;;;;;;;;;;;;;21.98;42.32;100713.53;4972649;28;7217;-77
2022/06/16 00:39:59;;;;;;;;;;;;;;;21.98;42.40;100711.78;5007784;28;6788;-77
2022/06/16 00:42:26;;;;;;;;;;;;;;;21.97;42.32;100712.63;4993879;28;6855;-77
2022/06/16 00:44:56;;;;;;;;;;;;;;;21.98;42.38;100713.53;4991717;28;7233;-77
2022/06/16 00:47:27;;;;;;;;;;;;;;;21.97;42.33;100711.75;4992284;28;8056;-77
2022/06/16 00:49:58;;;;;;;;;;;;;;;21.95;42.55;100709.16;4988962;28;8559;-77
2022/06/16 00:52:32;;;;;;;;;;;;;;;21.93;42.69;100721.31;4969271;28;7636;-77
2022/06/16 00:55:07;;;;;;;;;;;;;;;21.89;42.51;100720.44;4991987;28;6808;-77
2022/06/16 00:57:41;;;;;;;;;;;;;;;21.84;42.85;100732.56;4970666;28;6835;-77
2022/06/16 01:02:52;;;;;;;;;;;;;;;21.78;43.10;100736.00;4975371;28;7883;-77
2022/06/16 01:05:18;;;;;;;;;;;;;;;21.76;42.47;100739.44;4985725;28;7231;-77
2022/06/16 01:07:47;;;;;;;;;;;;;;;21.74;42.85;100739.47;4975259;28;8835;-77
2022/06/16 01:10:15;;;;;;;;;;;;;;;21.72;43.33;100738.56;4989550;28;6986;-77
2022/06/16 01:16:25;;;;;;;;;;;;;;;21.69;42.95;100722.88;4971252;28;7254;-77
2022/06/16 01:19:32;;;;;;;;;;;;;;;21.70;43.18;100724.63;4952256;28;8712;-77
2022/06/16 01:22:14;;;;;;;;;;;;;;;21.71;43.42;100741.16;4995166;28;6978;-77
2022/06/16 01:25:13;;;;;;;;;;;;;;;21.70;43.41;100739.44;4996827;28;6808;-77
2022/06/16 01:28:00;;;;;;;;;;;;;;;21.69;43.39;100748.13;4995191;28;7518;-77
2022/06/16 01:31:00;;;;;;;;;;;;;;;21.68;43.31;100747.22;4992750;28;8757;-77
2022/06/16 01:33:59;;;;;;;;;;;;;;;21.67;43.51;100745.47;4973132;28;7859;-77
2022/06/16 01:36:40;;;;;;;;;;;;;;;21.64;43.29;100748.91;4978994;28;6996;-77
2022/06/16 01:39:32;;;;;;;;;;;;;;;21.65;43.51;100755.00;4996010;28;7217;-77
2022/06/16 01:42:16;;;;;;;;;;;;;;;21.62;43.27;100750.63;4986780;28;7149;-77
2022/06/16 01:45:01;;;;;;;;;;;;;;;21.61;43.50;100748.00;4985368;28;7030;-77
2022/06/16 01:47:31;;;;;;;;;;;;;;;21.60;43.32;100746.25;5005564;28;8831;-77
2022/06/16 01:50:12;;;;;;;;;;;;;;;21.58;43.52;100748.84;4990135;28;9898;-77
2022/06/16 01:53:07;;;;;;;;;;;;;;;21.57;43.70;100748.84;4991551;28;7274;-77
2022/06/16 01:55:46;;;;;;;;;;;;;;;21.54;43.36;100756.66;4976588;28;8532;-77
2022/06/16 01:58:28;;;;;;;;;;;;;;;21.50;43.65;100760.97;4972796;28;6824;-77
2022/06/16 02:00:59;;;;;;;;;;;;;;;21.48;43.68;100774.00;4994374;28;7788;-77
2022/06/16 02:03:39;;;;;;;;;;;;;;;21.46;43.66;100772.22;4971447;28;6883;-77
2022/06/16 02:06:23;;;;;;;;;;;;;;;21.43;43.90;100773.06;4984057;28;7010;-77
2022/06/16 02:08:57;;;;;;;;;;;;;;;21.43;44.04;100777.41;4994599;28;6988;-77
2022/06/16 02:11:33;;;;;;;;;;;;;;;21.39;44.00;100776.50;4991103;28;7210;-77
2022/06/16 02:14:25;;;;;;;;;;;;;;;21.37;44.40;100786.06;4978272;28;6900;-77
2022/06/16 02:16:53;;;;;;;;;;;;;;;21.35;44.12;100788.63;4991646;28;6912;-77
2022/06/16 02:19:24;;;;;;;;;;;;;;;21.34;44.01;100778.19;4990861;28;7691;-77
2022/06/16 02:21:52;;;;;;;;;;;;;;;21.31;44.45;100779.06;4989543;28;6807;-77
2022/06/16 02:24:25;;;;;;;;;;;;;;;21.28;44.05;100783.34;4977064;28;8500;-77
2022/06/16 02:26:56;;;;;;;;;;;;;;;21.21;43.79;100788.50;4990174;28;6827;-77
2022/06/16 02:29:36;;;;;;;;;;;;;;;21.16;44.25;100782.38;4991187;28;6820;-77
2022/06/16 02:32:49;;;;;;;;;;;;;;;21.09;44.30;100777.97;4995181;28;6968;-77
2022/06/16 02:35:37;;;;;;;;;;;;;;;21.00;44.27;100781.31;4992793;28;9085;-77
2022/06/16 02:38:48;;;;;;;;;;;;;;;20.93;44.46;100776.91;4973860;28;6899;-77
2022/06/16 02:41:55;;;;;;;;;;;;;;;20.80;44.89;100783.69;5010657;28;7770;-77
2022/06/16 02:45:00;;;;;;;;;;;;;;;20.68;44.83;100792.22;5010558;28;6820;-77
2022/06/16 02:47:48;;;;;;;;;;;;;;;20.57;44.61;100792.09;4972157;28;7583;-77
2022/06/16 02:50:46;;;;;;;;;;;;;;;20.45;45.13;100790.19;5008400;28;6975;-77
2022/06/16 02:57:07;;;;;;;;;;;;;;;20.28;45.65;100786.47;4993770;28;8205;-77
2022/06/16 02:59:47;;;;;;;;;;;;;;;20.20;45.10;100805.47;4985061;28;6824;-77
2022/06/16 03:02:19;;;;;;;;;;;;;;;20.14;45.64;100807.09;4982101;28;7652;-77
2022/06/16 03:04:50;;;;;;;;;;;;;;;20.07;45.37;100808.75;4993922;28;6983;-77
2022/06/16 03:07:17;;;;;;;;;;;;;;;20.01;45.83;100808.63;4994510;28;6903;-77
2022/06/16 03:09:43;;;;;;;;;;;;;;;19.95;45.86;100812.00;5000886;28;6823;-77
2022/06/16 03:12:11;;;;;;;;;;;;;;;19.88;46.09;100813.63;5013064;28;7002;-76
2022/06/16 03:14:38;;;;;;;;;;;;;;;19.82;45.68;100818.72;4999271;28;6804;-77
2022/06/16 03:17:05;;;;;;;;;;;;;;;19.76;46.14;100813.44;4973944;28;8486;-77
2022/06/16 03:19:31;;;;;;;;;;;;;;;19.71;46.07;100815.94;4976847;28;6983;-77
2022/06/16 03:21:56;;;;;;;;;;;;;;;19.66;46.70;100817.56;4975483;28;6898;-77
2022/06/16 03:24:23;;;;;;;;;;;;;;;19.62;46.27;100819.25;5000079;28;6776;-77
2022/06/16 03:26:48;;;;;;;;;;;;;;;19.60;46.43;100825.25;4994553;28;7979;-77
2022/06/16 03:29:14;;;;;;;;;;;;;;;19.55;46.73;100838.19;5008691;28;7043;-77
2022/06/16 03:31:40;;;;;;;;;;;;;;;19.51;46.68;100839.88;4995058;28;7050;-77
2022/06/16 03:34:06;;;;;;;;;;;;;;;19.46;46.52;100838.91;4998846;28;6886;-77
2022/06/16 03:36:33;;;;;;;;;;;;;;;19.40;46.48;100834.47;4991286;28;8414;-77
2022/06/16 03:39:01;;;;;;;;;;;;;;;19.37;46.83;100841.31;4989188;28;7063;-77
2022/06/16 03:41:27;;;;;;;;;;;;;;;19.34;47.03;100847.34;4997884;28;9400;-77
2022/06/16 03:43:52;;;;;;;;;;;;;;;19.31;47.42;100847.28;4978052;28;6883;-77
2022/06/16 03:46:19;;;;;;;;;;;;;;;19.27;47.72;100848.09;5009539;28;6874;-77
2022/06/16 03:48:44;;;;;;;;;;;;;;;19.23;47.40;100848.84;4999417;28;7860;-77
2022/06/16 03:51:11;;;;;;;;;;;;;;;19.21;47.25;100851.41;4973677;28;8532;-77
2022/06/16 03:53:38;;;;;;;;;;;;;;;19.19;47.17;100855.72;4978166;28;8470;-77
2022/06/16 03:56:05;;;;;;;;;;;;;;;19.17;47.68;100854.81;4991687;28;7310;-77
2022/06/16 03:58:31;;;;;;;;;;;;;;;19.14;47.67;100859.97;4995963;28;8948;-76
2022/06/16 04:00:58;;;;;;;;;;;;;;;19.12;47.61;100861.63;4986661;28;6792;-76
2022/06/16 04:06:11;;;;;;;;;;;;;;;19.10;47.89;100868.53;5003027;28;7109;-78
2022/06/16 04:08:39;;;;;;;;;;;;;;;19.11;48.39;100867.66;5006728;28;6982;-77
2022/06/16 04:13:52;;;;;;;;;;;;;;;19.18;48.22;100879.09;5003838;28;6978;-77
2022/06/16 04:16:18;;;;;;;;;;;;;;;19.26;48.86;100875.78;5006485;28;6792;-76
2022/06/16 04:18:43;;;;;;;;;;;;;;;19.41;48.91;100882.09;4994451;28;6800;-76
2022/06/16 04:21:11;;;;;;;;;;;;;;;19.63;48.72;100880.78;5009885;28;6787;-76
2022/06/16 04:23:37;;;;;;;;;;;;;;;19.89;48.82;100892.50;4990461;28;6977;-77
2022/06/16 04:26:03;;;;;;;;;;;;;;;20.16;48.53;100883.44;4986895;28;6836;-77
2022/06/16 04:28:29;;;;;;;;;;;;;;;20.45;48.21;100883.03;5008372;28;6962;-77
2022/06/16 04:30:55;;;;;;;;;;;;;;;20.74;47.60;100888.66;5008386;28;6876;-77
2022/06/16 04:33:21;;;;;;;;;;;;;;;20.99;46.63;100883.78;5007384;28;7121;-77
2022/06/16 04:35:46;;;;;;;;;;;;;;;21.22;46.54;100888.44;5007528;28;6796;-77
2022/06/16 04:38:12;;;;;;;;;;;;;;;21.45;46.46;100888.69;5007981;28;7317;-77
2022/06/16 04:40:38;;;;;;;;;;;;;;;21.68;46.19;100890.69;4991470;28;7003;-77
2022/06/16 04:43:04;;;;;;;;;;;;;;;21.89;45.61;100889.13;5007624;28;6823;-77
2022/06/16 04:45:30;;;;;;;;;;;;;;;22.04;44.80;100902.31;4992718;28;7850;-77
2022/06/16 04:47:56;;;;;;;;;;;;;;;22.19;44.35;100903.28;5006779;28;7373;-77
2022/06/16 04:50:22;;;;;;;;;;;;;;;22.36;44.30;100897.34;4991948;28;7111;-77
2022/06/16 04:52:49;;;;;;;;;;;;;;;22.55;44.04;100903.56;4991032;28;7208;-77
2022/06/16 04:55:16;;;;;;;;;;;;;;;22.75;43.85;100906.31;5009586;28;6804;-77
2022/06/16 04:57:42;;;;;;;;;;;;;;;22.93;43.49;100908.13;5006617;28;7132;-77
2022/06/16 05:00:13;;;;;;;;;;;;;;;23.04;42.72;100908.19;5008531;28;6888;-77
2022/06/16 05:02:39;;;;;;;;;;;;;;;23.08;41.96;100909.97;5006880;28;6804;-77
2022/06/16 05:05:06;;;;;;;;;;;;;;;23.13;41.63;100921.31;5009072;28;6909;-77
2022/06/16 05:07:31;;;;;;;;;;;;;;;23.20;41.43;100919.59;4991242;28;6792;-77
2022/06/16 05:09:57;;;;;;;;;;;;;;;23.25;40.93;100914.38;5008595;28;6792;-77
2022/06/16 05:12:23;;;;;;;;;;;;;;;23.33;41.18;100917.94;5023944;28;7244;-77
2022/06/16 05:14:48;;;;;;;;;;;;;;;23.43;40.87;100927.53;5005713;28;6879;-77
2022/06/16 05:17:15;;;;;;;;;;;;;;;23.52;41.31;100936.28;5007680;28;6808;-77
2022/06/16 05:19:41;;;;;;;;;;;;;;;23.60;40.81;100941.53;5007860;28;7416;-77
2022/06/16 05:22:07;;;;;;;;;;;;;;;23.67;41.02;100945.91;5008398;28;6784;-77
2022/06/16 05:24:33;;;;;;;;;;;;;;;23.78;40.39;100938.09;4988666;28;6804;-77
2022/06/16 05:27:01;;;;;;;;;;;;;;;23.89;40.47;100946.84;5007795;28;7258;-77
2022/06/16 05:29:27;;;;;;;;;;;;;;;24.02;40.67;100950.34;4991662;28;6824;-77
2022/06/16 05:31:53;;;;;;;;;;;;;;;24.13;39.88;100950.38;4990378;28;7062;-77
2022/06/16 05:34:18;;;;;;;;;;;;;;;24.22;40.29;100947.75;5007137;28;6899;-77
2022/06/16 05:36:47;;;;;;;;;;;;;;;24.30;40.06;100944.25;4999178;28;7031;-77
2022/06/16 05:39:13;;;;;;;;;;;;;;;24.37;39.61;100952.13;5006862;28;6860;-77
2022/06/16 05:41:39;;;;;;;;;;;;;;;24.46;39.43;100955.59;4980814;28;7604;-77
2022/06/16 05:44:06;;;;;;;;;;;;;;;24.53;39.60;100957.34;5006260;28;6895;-77
2022/06/16 05:46:32;;;;;;;;;;;;;;;24.58;38.84;100959.97;4989290;28;7279;-77
2022/06/16 05:48:57;;;;;;;;;;;;;;;24.63;38.53;100966.09;5005432;28;6815;-77
2022/06/16 05:51:23;;;;;;;;;;;;;;;24.68;38.52;100973.06;4987535;28;6923;-77
2022/06/16 05:53:50;;;;;;;;;;;;;;;24.73;37.76;100970.44;4990816;28;6792;-77
2022/06/16 05:56:16;;;;;;;;;;;;;;;24.69;37.80;100972.19;5006075;28;7836;-77
2022/06/16 05:58:42;;;;;;;;;;;;;;;24.66;38.08;100968.69;5006060;28;7195;-77
2022/06/16 06:01:10;;;;;;;;;;;;;;;24.61;37.77;100975.66;5005646;28;7801;-78
2022/06/16 06:03:38;;;;;;;;;;;;;;;24.48;36.79;100967.84;4983539;28;7009;-78
2022/06/16 06:06:04;;;;;;;;;;;;;;;24.30;36.65;100981.81;4990030;28;6812;-78
2022/06/16 06:16:55;;;;;;;;;;;;;;;23.32;37.16;100993.75;5006209;28;6816;-78
2022/06/16 06:19:24;;;;;;;;;;;;;;;23.11;37.09;100985.78;4990087;28;7055;-78
2022/06/16 06:22:02;;;;;;;;;;;;;;;22.98;37.03;100979.63;5006555;28;6812;-77
2022/06/16 06:24:34;;;;;;;;;;;;;;;22.91;37.23;100990.03;4990981;28;6891;-77
2022/06/16 06:27:11;;;;;;;;;;;;;;;22.85;37.33;101003.94;4989771;28;6811;-77
2022/06/16 06:29:36;;;;;;;;;;;;;;;22.79;37.61;101007.38;5006572;28;7259;-77
2022/06/16 06:32:02;;;;;;;;;;;;;;;22.77;37.82;101009.09;5006052;28;6795;-77
2022/06/16 06:34:29;;;;;;;;;;;;;;;22.72;37.78;101010.81;5005627;28;7832;-77
2022/06/16 06:36:55;;;;;;;;;;;;;;;22.68;37.92;101004.69;4989725;28;7187;-77
2022/06/16 06:39:22;;;;;;;;;;;;;;;22.66;37.68;101015.97;5003883;28;6867;-77
2022/06/16 06:41:48;;;;;;;;;;;;;;;22.65;37.96;101016.84;5005449;28;6816;-78
2022/06/16 06:44:14;;;;;;;;;;;;;;;22.66;37.58;101015.97;5006378;28;6796;-78
2022/06/16 06:46:40;;;;;;;;;;;;;;;22.68;37.73;101016.84;5005559;28;7213;-78
2022/06/16 06:49:06;;;;;;;;;;;;;;;22.70;37.67;101017.78;5006285;28;7224;-77
2022/06/16 06:51:32;;;;;;;;;;;;;;;22.74;38.01;101024.75;5022922;28;6799;-77
2022/06/16 06:53:59;;;;;;;;;;;;;;;22.82;38.01;101025.69;5006666;28;6800;-77
2022/06/16 06:56:27;;;;;;;;;;;;;;;22.96;37.90;101019.66;4973448;28;7075;-77
2022/06/16 06:58:56;;;;;;;;;;;;;;;23.24;38.52;101019.84;5006946;28;7075;-77
2022/06/16 07:01:22;;;;;;;;;;;;;;;23.56;38.05;101029.59;4989632;28;6892;-77
2022/06/16 07:03:49;;;;;;;;;;;;;;;23.93;37.97;101026.25;5005667;28;7042;-77
2022/06/16 07:06:17;;;;;;;;;;;;;;;24.36;37.96;101031.56;5006431;28;7238;-77
2022/06/16 07:08:43;;;;;;;;;;;;;;;24.82;37.68;101033.34;5006314;28;6815;-77
2022/06/16 07:11:09;;;;;;;;;;;;;;;25.24;37.31;101032.38;5004714;28;6894;-77
2022/06/16 07:13:35;;;;;;;;;;;;;;;25.68;36.62;101037.47;5002778;28;6792;-77
2022/06/16 07:16:01;;;;;;;;;;;;;;;26.08;36.29;101037.28;5005680;28;6875;-77
2022/06/16 07:18:27;;;;;;;;;;;;;;;26.45;35.77;101042.28;5005653;28;6875;-77
2022/06/16 07:20:53;;;;;;;;;;;;;;;26.72;34.86;101045.56;4973160;28;8784;-77
2022/06/16 07:23:19;;;;;;;;;;;;;;;26.87;34.14;101046.31;5005614;28;6792;-78
2022/06/16 07:25:50;;;;;;;;;;;;;;;27.03;33.55;101050.53;4989381;28;6982;-78
2022/06/16 07:28:17;;;;;;;;;;;;;;;27.22;33.26;101045.09;5006089;28;6893;-78
2022/06/16 07:30:43;;;;;;;;;;;;;;;27.45;32.88;101036.06;4977303;28;7024;-78
2022/06/16 07:33:12;;;;;;;;;;;;;;;27.69;33.00;101048.06;5006572;28;6865;-78
2022/06/16 07:35:41;;;;;;;;;;;;;;;27.91;32.12;101050.41;4986083;28;8608;-78
2022/06/16 07:38:08;;;;;;;;;;;;;;;28.04;32.05;101053.72;4987955;28;6935;-78
2022/06/16 07:40:34;;;;;;;;;;;;;;;28.24;31.91;101053.44;5006893;28;6899;-78
2022/06/16 07:43:00;;;;;;;;;;;;;;;28.41;31.16;101066.38;5004769;28;6804;-78
2022/06/16 07:45:29;;;;;;;;;;;;;;;28.61;31.24;101069.56;5004443;28;6800;-78
2022/06/16 07:48:00;;;;;;;;;;;;;;;28.81;30.64;101069.22;5005862;28;6815;-78
2022/06/16 07:50:27;;;;;;;;;;;;;;;28.94;30.73;101070.78;5006414;28;6808;-78
2022/06/16 07:52:52;;;;;;;;;;;;;;;29.04;30.15;101070.59;5005567;28;8473;-78
2022/06/16 07:55:18;;;;;;;;;;;;;;;29.20;30.39;101076.47;4989918;28;7903;-78
2022/06/16 07:57:50;;;;;;;;;;;;;;;29.37;30.20;101065.59;5005100;28;7343;-78
2022/06/16 08:00:25;;;;;;;;;;;;;;;29.60;29.75;101073.06;4989181;28;6887;-78
2022/06/16 08:02:53;;;;;;;;;;;;;;;29.86;29.53;101084.81;5004217;28;6980;-78
2022/06/16 08:05:19;;;;;;;;;;;;;;;29.99;29.29;101087.22;4981878;28;6982;-78
2022/06/16 08:07:45;;;;;;;;;;;;;;;30.01;28.78;101078.31;5009033;28;7280;-78
2022/06/16 08:10:23;;;;;;;;;;;;;;;30.16;29.80;101079.78;5008946;28;6828;-78
2022/06/16 08:12:49;;;;;;;;;;;;;;;30.29;29.05;101083.00;4992420;28;7018;-78
2022/06/16 08:15:15;;;;;;;;;;;;;;;30.30;28.73;101084.72;5009516;28;7146;-78
2022/06/16 08:17:44;;;;;;;;;;;;;;;30.42;28.26;101080.03;5008624;28;6866;-78
2022/06/16 08:20:11;;;;;;;;;;;;;;;30.53;28.47;101093.00;4985323;28;6819;-78
2022/06/16 08:22:37;;;;;;;;;;;;;;;30.73;27.61;101090.78;4985404;28;6982;-78
2022/06/16 08:25:07;;;;;;;;;;;;;;;30.89;27.63;101093.03;5011387;28;6872;-78
2022/06/16 08:27:37;;;;;;;;;;;;;;;30.89;27.44;101091.22;4992490;28;6988;-78
2022/06/16 08:30:11;;;;;;;;;;;;;;;30.87;26.84;101093.06;5009789;28;6819;-78
2022/06/16 08:32:36;;;;;;;;;;;;;;;30.88;26.92;101088.66;5007949;28;6984;-78
2022/06/16 08:35:04;;;;;;;;;;;;;;;31.06;27.27;101087.28;5007781;28;7631;-78
2022/06/16 08:37:29;;;;;;;;;;;;;;;31.42;26.97;101099.56;5008369;28;6796;-78
2022/06/16 08:39:55;;;;;;;;;;;;;;;31.62;26.04;101091.03;4991876;28;6796;-78
2022/06/16 08:42:27;;;;;;;;;;;;;;;31.71;26.02;101085.47;5008164;28;6872;-78
2022/06/16 08:45:12;;;;;;;;;;;;;;;31.92;25.44;101082.22;5000360;28;8379;-78
2022/06/16 08:48:24;;;;;;;;;;;;;;;32.08;25.34;101074.69;5007294;28;7031;-78
2022/06/16 08:51:22;;;;;;;;;;;;;;;32.30;25.60;101088.09;4993263;28;6965;-78
2022/06/16 08:54:08;;;;;;;;;;;;;;;32.65;24.25;101088.75;5007638;28;6819;-78
2022/06/16 08:56:54;;;;;;;;;;;;;;;32.75;23.79;101094.63;4992418;28;6821;-78
2022/06/16 08:59:48;;;;;;;;;;;;;;;32.86;23.49;101091.56;5008246;28;6873;-78
2022/06/16 09:02:42;;;;;;;;;;;;;;;33.10;23.15;101092.53;5008482;28;7001;-78
2022/06/16 09:05:41;;;;;;;;;;;;;;;33.16;22.50;101098.53;5008298;28;6819;-78
2022/06/16 09:08:49;;;;;;;;;;;;;;;33.26;22.52;101107.91;4992466;28;7065;-78
2022/06/16 09:11:35;;;;;;;;;;;;;;;33.27;21.96;101117.59;4962291;28;7301;-78
2022/06/16 09:17:36;;;;;;;;;;;;;;;33.47;21.69;101122.22;5008377;28;6819;-78
2022/06/16 09:20:32;;;;;;;;;;;;;;;33.68;21.57;101127.66;5009440;28;6799;-78
2022/06/16 09:23:26;;;;;;;;;;;;;;;33.79;20.96;101114.81;5008853;28;6807;-78
2022/06/16 09:26:30;;;;;;;;;;;;;;;33.99;20.77;101114.94;5007226;28;7244;-78
2022/06/16 09:29:43;;;;;;;;;;;;;;;34.02;20.25;101126.38;5023604;28;6811;-78
2022/06/16 09:32:47;;;;;;;;;;;;;;;34.04;20.04;101132.50;4969986;28;6903;-78
2022/06/16 09:35:24;;;;;;;;;;;;;;;34.11;20.02;101126.94;4996642;28;6966;-78
2022/06/16 09:38:08;;;;;;;;;;;;;;;34.27;20.36;101138.69;5015068;28;6791;-78
2022/06/16 09:40:36;;;;;;;;;;;;;;;34.41;19.54;101143.44;4980737;28;7019;-78
2022/06/16 09:43:27;;;;;;;;;;;;;;;34.43;19.15;101138.94;5009069;28;6989;-78
2022/06/16 09:46:10;;;;;;;;;;;;;;;34.41;19.37;101143.44;5002141;28;7130;-78
2022/06/16 09:48:45;;;;;;;;;;;;;;;34.51;19.69;101148.41;4993041;28;6812;-78
2022/06/16 09:51:23;;;;;;;;;;;;;;;34.61;19.28;101147.97;5008383;28;8210;-79
2022/06/16 09:54:24;;;;;;;;;;;;;;;34.61;19.07;101147.97;4992038;28;8513;-79
2022/06/16 09:57:02;;;;;;;;;;;;;;;34.70;19.15;101145.84;4985899;28;6976;-78
2022/06/16 10:00:09;;;;;;;;;;;;;;;34.83;19.36;101147.06;5007890;28;7027;-78
2022/06/16 10:02:49;;;;;;;;;;;;;;;34.96;19.22;101150.09;5007680;28;6796;-78
2022/06/16 10:05:39;;;;;;;;;;;;;;;35.01;19.29;101147.19;5006742;28;7871;-78
2022/06/16 10:08:29;;;;;;;;;;;;;;;35.07;18.83;101148.78;4991644;28;6800;-78
2022/06/16 10:11:33;;;;;;;;;;;;;;;35.22;19.69;101148.09;5006926;28;6811;-78
2022/06/16 10:14:26;;;;;;;;;;;;;;;35.28;18.97;101141.63;5003857;28;8801;-78
2022/06/16 10:17:01;;;;;;;;;;;;;;;35.21;18.74;101143.69;5008336;28;6811;-78
2022/06/16 10:19:40;;;;;;;;;;;;;;;34.97;18.77;101143.81;5008445;28;6803;-79
2022/06/16 10:22:08;;;;;;;;;;;;;;;34.64;18.91;101139.00;4987299;28;8430;-79
2022/06/16 10:24:52;;;;;;;;;;;;;;;34.46;19.23;101135.28;5007103;28;6792;-79
2022/06/16 10:27:21;;;;;;;;;;;;;;;34.40;19.41;101141.72;5006345;28;7446;-79
2022/06/16 10:29:59;;;;;;;;;;;;;;;34.56;19.70;101144.66;4994210;28;7777;-79
2022/06/16 10:32:47;;;;;;;;;;;;;;;34.81;19.65;101140.94;4976687;28;7148;-79
2022/06/16 10:35:21;;;;;;;;;;;;;;;34.92;19.63;101150.28;5005906;28;7604;-78
2022/06/16 10:37:52;;;;;;;;;;;;;;;34.91;19.45;101149.41;4990507;28;7544;-78
2022/06/16 10:40:30;;;;;;;;;;;;;;;34.81;19.27;101156.91;5003007;28;6876;-78
2022/06/16 10:43:12;;;;;;;;;;;;;;;34.79;19.06;101157.94;5005922;28;6800;-78
2022/06/16 10:45:39;;;;;;;;;;;;;;;34.78;18.95;101157.03;5006429;28;6977;-78
2022/06/16 10:48:36;;;;;;;;;;;;;;;34.72;19.01;101160.84;5005885;28;7158;-78
2022/06/16 10:51:20;;;;;;;;;;;;;;;34.69;18.92;101158.31;4983510;28;7078;-78
2022/06/16 10:54:25;;;;;;;;;;;;;;;34.74;18.66;101166.94;5007003;28;6839;-79
2022/06/16 10:57:12;;;;;;;;;;;;;;;34.94;18.61;101173.22;5003895;28;6808;-78
2022/06/16 10:59:48;;;;;;;;;;;;;;;34.99;18.61;101165.91;4990888;28;7818;-78
2022/06/16 11:02:25;;;;;;;;;;;;;;;35.02;18.70;101157.78;4974580;28;7166;-78
2022/06/16 11:05:12;;;;;;;;;;;;;;;35.08;19.27;101154.03;4990178;28;6883;-78
2022/06/16 11:07:42;;;;;;;;;;;;;;;35.20;18.67;101149.09;4996379;28;6811;-78
2022/06/16 11:10:40;;;;;;;;;;;;;;;35.31;19.06;101131.69;4990161;28;6812;-78
2022/06/16 11:13:15;;;;;;;;;;;;;;;35.22;18.85;101132.09;4997654;28;6992;-78
2022/06/16 11:15:48;;;;;;;;;;;;;;;35.07;19.07;101135.47;4963457;28;7257;-78
2022/06/16 11:18:20;;;;;;;;;;;;;;;35.03;19.12;101132.03;4990454;28;7313;-78
2022/06/16 11:20:52;;;;;;;;;;;;;;;34.87;19.23;101139.84;4990780;28;7736;-78
2022/06/16 11:23:32;;;;;;;;;;;;;;;34.67;19.13;101138.00;5005473;28;6820;-78
2022/06/16 11:26:20;;;;;;;;;;;;;;;34.61;19.68;101144.47;5005426;28;7016;-78
2022/06/16 11:28:54;;;;;;;;;;;;;;;34.71;19.55;101148.47;5004814;28;8372;-78
2022/06/16 11:31:37;;;;;;;;;;;;;;;34.71;19.41;101148.47;4981802;28;7068;-78
2022/06/16 11:34:13;;;;;;;;;;;;;;;34.57;19.39;101148.16;5012467;28;7013;-78
2022/06/16 11:37:06;;;;;;;;;;;;;;;34.60;19.70;101145.38;4988608;28;6903;-78
2022/06/16 11:40:16;;;;;;;;;;;;;;;34.78;19.71;101153.53;4999391;28;8437;-78
2022/06/16 11:43:29;;;;;;;;;;;;;;;34.78;19.64;101157.03;5026028;28;7019;-78
2022/06/16 11:46:14;;;;;;;;;;;;;;;34.64;19.48;101151.44;5009993;28;6891;-78
2022/06/16 11:49:14;;;;;;;;;;;;;;;34.59;20.16;101152.50;5010191;28;7287;-78
2022/06/16 11:52:26;;;;;;;;;;;;;;;34.70;19.38;101156.50;5009718;28;6887;-78
2022/06/16 11:55:40;;;;;;;;;;;;;;;34.66;20.10;101169.06;4984678;28;6888;-78
2022/06/16 11:58:37;;;;;;;;;;;;;;;34.83;19.87;101156.84;5007913;28;7032;-78
2022/06/16 12:01:28;;;;;;;;;;;;;;;34.99;19.32;101165.03;5008569;28;6811;-78
2022/06/16 12:04:39;;;;;;;;;;;;;;;35.13;19.94;101160.03;4993069;28;6816;-78
2022/06/16 12:07:29;;;;;;;;;;;;;;;35.35;19.85;101152.84;4997884;28;6820;-78
2022/06/16 12:10:16;;;;;;;;;;;;;;;35.39;19.29;101146.47;5025738;28;7909;-78
2022/06/16 12:13:23;;;;;;;;;;;;;;;35.41;19.88;101152.59;5009157;28;7144;-77
2022/06/16 12:16:13;;;;;;;;;;;;;;;35.45;19.82;101156.88;4990104;28;7451;-77
2022/06/16 12:19:01;;;;;;;;;;;;;;;35.44;19.27;101155.09;5009582;28;6807;-78
2022/06/16 12:21:46;;;;;;;;;;;;;;;35.49;19.50;101157.56;4994891;28;6812;-78
2022/06/16 12:24:53;;;;;;;;;;;;;;;35.55;19.91;101152.88;4992397;28;6978;-78
2022/06/16 12:27:38;;;;;;;;;;;;;;;35.70;19.44;101155.75;5000277;28;6892;-77
2022/06/16 12:30:16;;;;;;;;;;;;;;;35.73;19.56;101152.94;4993412;28;6978;-78
2022/06/16 12:33:03;;;;;;;;;;;;;;;35.71;19.29;101154.81;5007323;28;6815;-78
2022/06/16 12:35:41;;;;;;;;;;;;;;;35.66;18.86;101154.19;4968389;28;8073;-77
2022/06/16 12:38:45;;;;;;;;;;;;;;;35.67;18.95;101150.56;5008141;28;6887;-77
2022/06/16 12:41:26;;;;;;;;;;;;;;;35.69;19.67;101154.03;4969262;28;7224;-77
2022/06/16 12:44:05;;;;;;;;;;;;;;;35.82;19.33;101149.84;5007971;28;7035;-77
2022/06/16 12:46:51;;;;;;;;;;;;;;;35.90;18.90;101138.84;5009924;28;6827;-77
2022/06/16 12:49:35;;;;;;;;;;;;;;;35.92;19.23;101150.28;4992716;28;9154;-78
2022/06/16 12:52:11;;;;;;;;;;;;;;;35.94;19.15;101160.88;4982020;28;7215;-78
2022/06/16 12:54:47;;;;;;;;;;;;;;;35.93;18.95;101168.00;4976226;28;7075;-78
2022/06/16 12:57:29;;;;;;;;;;;;;;;35.90;18.61;101167.28;5008482;28;6987;-78
2022/06/16 13:00:02;;;;;;;;;;;;;;;35.92;18.57;101176.06;4966081;28;9415;-78
2022/06/16 13:02:39;;;;;;;;;;;;;;;36.09;18.89;101181.50;4992872;28;8179;-78
2022/06/16 13:05:10;;;;;;;;;;;;;;;36.33;19.05;101175.94;4992453;28;7028;-78
2022/06/16 13:07:49;;;;;;;;;;;;;;;36.61;19.08;101179.94;5009749;28;6803;-78
2022/06/16 13:10:16;;;;;;;;;;;;;;;36.65;19.02;101178.84;5008697;28;7220;-78
2022/06/16 13:13:04;;;;;;;;;;;;;;;36.51;18.67;101189.34;5009120;28;6859;-78
2022/06/16 13:15:44;;;;;;;;;;;;;;;36.29;18.30;101179.69;4997054;28;6823;-78
2022/06/16 13:18:30;;;;;;;;;;;;;;;36.14;18.94;101179.50;5008185;28;6999;-78
2022/06/16 13:21:05;;;;;;;;;;;;;;;36.03;18.84;101179.13;5008267;28;6808;-78
2022/06/16 13:23:39;;;;;;;;;;;;;;;36.07;18.99;101167.38;5007421;28;6888;-78
2022/06/16 13:26:31;;;;;;;;;;;;;;;36.20;18.99;101170.34;5008212;28;6977;-78
2022/06/16 13:29:15;;;;;;;;;;;;;;;36.36;18.97;101165.13;5005205;28;7243;-78
2022/06/16 13:31:43;;;;;;;;;;;;;;;36.48;19.31;101162.78;5008274;28;7069;-78
2022/06/16 13:34:22;;;;;;;;;;;;;;;36.56;19.44;101168.63;5007264;28;7272;-78
2022/06/16 13:36:54;;;;;;;;;;;;;;;36.46;19.13;101170.00;4985282;28;6993;-78
2022/06/16 13:40:04;;;;;;;;;;;;;;;36.25;19.41;101178.97;5007313;28;7247;-78
2022/06/16 13:42:52;;;;;;;;;;;;;;;36.09;18.72;101170.84;4956468;28;7156;-78
2022/06/16 13:45:29;;;;;;;;;;;;;;;36.01;19.04;101164.97;5022365;28;7151;-78
2022/06/16 13:48:14;;;;;;;;;;;;;;;35.92;18.95;101170.75;5007091;28;6887;-78
2022/06/16 13:50:50;;;;;;;;;;;;;;;35.85;19.00;101164.84;5006977;28;7114;-78
2022/06/16 13:53:20;;;;;;;;;;;;;;;35.76;18.66;101155.47;5023770;28;7030;-78
2022/06/16 13:56:04;;;;;;;;;;;;;;;35.57;19.11;101158.13;5006330;28;6872;-78
2022/06/16 13:58:59;;;;;;;;;;;;;;;35.40;18.74;101157.06;4983570;28;6855;-78
2022/06/16 14:01:32;;;;;;;;;;;;;;;35.10;19.03;101151.31;5007501;28;7039;-78